KSBP/SBP METAR and TAF weather

Enter ICAO airport designator
Station Type Date Time Source
KSBP METAR 2021/05/15 00:56 UTC NOAA

KSBP 150056Z 31012KT 10SM BKN025 14/09 A2995 RMK AO2 SLP141 T01440094


Station Type Date Time Source
KSBP Decoded METAR 2021/05/15 00:56 UTC NOAA

SAN LUIS OBISPO MC CHESNEY, CA, United States (KSBP) 35-14N 120-38W 59M
May 14, 2021 - 08:56 PM EDT / 2021.05.15 0056 UTC
Wind: from the NW (310 degrees) at 14 MPH (12 KT):0
Visibility: 10 mile(s):0
Sky conditions: mostly cloudy
Temperature: 57.9 F (14.4 C)
Dew Point: 48.9 F (9.4 C)
Relative Humidity: 71%
Pressure (altimeter): 29.95 in. Hg (1014 hPa)
ob: KSBP 150056Z 31012KT 10SM BKN025 14/09 A2995 RMK AO2 SLP141 T01440094
cycle: 1

Station Type Date Time Source
KSBP TAF 2021/05/14 19:54 UTC NOAA

TAF
AMD KSBP 141853Z 1419/1518 VRB05KT P6SM OVC015
FM142000 27008KT P6SM SCT015
FM150200 31006KT P6SM BKN012
FM150500 30006KT P6SM OVC008
FM151100 VRB05KT P6SM OVC004
FM151700 VRB05KT P6SM OVC010

Example: see airport list